Time;durP1;ratioP1;P1;durP2;ratioP2;P2;SDS_P1;SDS_P2;PMS_P1;PMS_P2;Temp;Humidity;BMP_temperature;BMP_pressure;BME280_temperature;BME280_humidity;BME280_pressure;Samples;Min_cycle;Max_cycle;Signal;HPM_P1;HPM_P2
2022/04/05 00:00:57;;;;;;;9.43;7.85;;;;;;;;;;5017126;28;21101;-68
2022/04/05 00:03:22;;;;;;;13.52;7.63;;;;;;;;;;5020981;28;20391;-67
2022/04/05 00:05:48;;;;;;;10.68;7.88;;;;;;;;;;5022614;28;20041;-67
2022/04/05 00:08:16;;;;;;;13.15;8.35;;;;;;;;;;5021902;28;20025;-67
2022/04/05 00:10:43;;;;;;;11.98;7.93;;;;;;;;;;5019762;28;20056;-68
2022/04/05 00:13:08;;;;;;;12.10;7.88;;;;;;;;;;5017092;28;20033;-68
2022/04/05 00:15:35;;;;;;;12.88;8.95;;;;;;;;;;5018077;28;20536;-67
2022/04/05 00:18:01;;;;;;;13.00;9.30;;;;;;;;;;5023356;28;20033;-68
2022/04/05 00:20:27;;;;;;;10.27;8.15;;;;;;;;;;5027893;28;20021;-67
2022/04/05 00:22:55;;;;;;;12.93;8.85;;;;;;;;;;5023722;28;20109;-67
2022/04/05 00:25:20;;;;;;;8.90;7.63;;;;;;;;;;5019089;28;20033;-68
2022/04/05 00:27:47;;;;;;;12.38;8.50;;;;;;;;;;5012545;28;20067;-67
2022/04/05 00:30:15;;;;;;;11.60;8.73;;;;;;;;;;5023269;28;20072;-67
2022/04/05 00:32:41;;;;;;;12.93;8.93;;;;;;;;;;5012798;28;20030;-67
2022/04/05 00:35:08;;;;;;;11.63;7.55;;;;;;;;;;5027091;28;20470;-67
2022/04/05 00:37:34;;;;;;;12.50;8.25;;;;;;;;;;5020823;28;20083;-67
2022/04/05 00:40:00;;;;;;;15.98;8.35;;;;;;;;;;5011336;28;20041;-67
2022/04/05 00:42:27;;;;;;;10.98;7.82;;;;;;;;;;5017173;28;20044;-67
2022/04/05 00:44:53;;;;;;;10.02;7.07;;;;;;;;;;5014281;28;20030;-67
2022/04/05 00:47:20;;;;;;;10.27;7.25;;;;;;;;;;5017766;28;20034;-67
2022/04/05 00:49:48;;;;;;;9.02;7.45;;;;;;;;;;5020997;28;20041;-67
2022/04/05 00:52:16;;;;;;;8.45;6.80;;;;;;;;;;5024065;28;20054;-67
2022/04/05 00:54:44;;;;;;;10.23;7.50;;;;;;;;;;5010721;28;20436;-67
2022/04/05 00:57:13;;;;;;;8.43;6.57;;;;;;;;;;5021840;28;20449;-67
2022/04/05 00:59:43;;;;;;;8.98;7.07;;;;;;;;;;5028344;28;20038;-67
2022/04/05 01:02:17;;;;;;;11.05;7.32;;;;;;;;;;5024672;28;20654;-67
2022/04/05 01:04:44;;;;;;;7.28;6.57;;;;;;;;;;5024832;28;20049;-67
2022/04/05 01:07:22;;;;;;;11.57;7.30;;;;;;;;;;5016680;28;20401;-67
2022/04/05 01:09:53;;;;;;;8.70;7.57;;;;;;;;;;5020115;28;20089;-68
2022/04/05 01:12:20;;;;;;;9.82;6.65;;;;;;;;;;5029093;28;20466;-67
2022/04/05 01:14:47;;;;;;;9.07;6.82;;;;;;;;;;5031748;28;20052;-68
2022/04/05 01:17:13;;;;;;;7.78;6.90;;;;;;;;;;5027628;28;20042;-67
2022/04/05 01:19:38;;;;;;;8.77;6.43;;;;;;;;;;5020224;28;20434;-67
2022/04/05 01:22:04;;;;;;;12.68;6.53;;;;;;;;;;5022879;28;20064;-67
2022/04/05 01:24:30;;;;;;;8.40;6.15;;;;;;;;;;5016638;28;20698;-67
2022/04/05 01:26:57;;;;;;;7.43;6.20;;;;;;;;;;5022180;28;20041;-68
2022/04/05 01:29:26;;;;;;;7.05;6.07;;;;;;;;;;5024492;28;20030;-67
2022/04/05 01:31:56;;;;;;;7.05;6.18;;;;;;;;;;5022689;28;20018;-68
2022/04/05 01:34:24;;;;;;;6.80;6.07;;;;;;;;;;5026565;28;20025;-67
2022/04/05 01:36:55;;;;;;;6.35;5.75;;;;;;;;;;5022726;28;20044;-67
2022/04/05 01:39:24;;;;;;;8.50;5.73;;;;;;;;;;5022707;28;20029;-67
2022/04/05 01:41:55;;;;;;;6.20;5.60;;;;;;;;;;5025424;28;20549;-67
2022/04/05 01:44:21;;;;;;;8.43;5.78;;;;;;;;;;5021084;28;20060;-67
2022/04/05 01:46:48;;;;;;;7.70;5.97;;;;;;;;;;5025473;28;20037;-67
2022/04/05 01:49:14;;;;;;;7.32;5.70;;;;;;;;;;5019767;28;20418;-67
2022/04/05 01:51:41;;;;;;;7.45;5.80;;;;;;;;;;5021727;28;20033;-68
2022/04/05 01:54:08;;;;;;;6.70;5.78;;;;;;;;;;5022396;28;20608;-67
2022/04/05 01:56:41;;;;;;;8.40;6.05;;;;;;;;;;5020641;28;20157;-67
2022/04/05 01:59:07;;;;;;;7.07;5.88;;;;;;;;;;5018567;28;20386;-67
2022/04/05 02:01:33;;;;;;;6.10;5.47;;;;;;;;;;5027364;28;20045;-68
2022/04/05 02:03:58;;;;;;;7.18;5.63;;;;;;;;;;5027804;28;20033;-67
2022/04/05 02:06:25;;;;;;;6.80;5.88;;;;;;;;;;5026914;28;20664;-68
2022/04/05 02:08:51;;;;;;;7.65;6.07;;;;;;;;;;5033976;28;20048;-68
2022/04/05 02:11:17;;;;;;;6.22;5.57;;;;;;;;;;5022781;28;20520;-67
2022/04/05 02:13:42;;;;;;;6.90;5.68;;;;;;;;;;5023715;28;20030;-68
2022/04/05 02:16:08;;;;;;;9.40;6.57;;;;;;;;;;5022297;28;20114;-67
2022/04/05 02:18:37;;;;;;;12.15;6.70;;;;;;;;;;5020133;28;20026;-67
2022/04/05 02:21:03;;;;;;;13.63;7.32;;;;;;;;;;5017836;28;20033;-67
2022/04/05 02:23:29;;;;;;;9.80;7.32;;;;;;;;;;5028868;28;20033;-67
2022/04/05 02:25:55;;;;;;;8.60;6.45;;;;;;;;;;5029739;28;20022;-67
2022/04/05 02:28:20;;;;;;;12.55;7.15;;;;;;;;;;5026651;28;20107;-68
2022/04/05 02:30:46;;;;;;;10.27;6.75;;;;;;;;;;5015984;28;20062;-67
2022/04/05 02:33:12;;;;;;;9.80;7.03;;;;;;;;;;5018861;28;20026;-67
2022/04/05 02:35:38;;;;;;;8.18;6.50;;;;;;;;;;5020192;28;20034;-68
2022/04/05 02:38:04;;;;;;;12.02;6.93;;;;;;;;;;5017680;28;20033;-68
2022/04/05 02:40:30;;;;;;;12.25;6.78;;;;;;;;;;5019108;28;20033;-67
2022/04/05 02:42:56;;;;;;;8.40;6.50;;;;;;;;;;5021692;28;20037;-67
2022/04/05 02:45:22;;;;;;;6.75;6.13;;;;;;;;;;5023420;28;20501;-67
2022/04/05 02:47:49;;;;;;;7.63;6.80;;;;;;;;;;5021486;28;20034;-67
2022/04/05 02:50:18;;;;;;;8.35;6.20;;;;;;;;;;5020613;28;20437;-67
2022/04/05 02:52:47;;;;;;;11.88;6.65;;;;;;;;;;5026566;28;20017;-67
2022/04/05 02:55:14;;;;;;;7.75;5.90;;;;;;;;;;5022312;28;20033;-67
2022/04/05 02:57:41;;;;;;;7.32;6.15;;;;;;;;;;5021695;28;20401;-67
2022/04/05 03:00:08;;;;;;;8.73;6.40;;;;;;;;;;5021171;28;20401;-68
2022/04/05 03:02:38;;;;;;;9.88;6.82;;;;;;;;;;5025092;28;20040;-66
2022/04/05 03:05:06;;;;;;;10.10;6.70;;;;;;;;;;5015760;28;20056;-67
2022/04/05 03:07:34;;;;;;;8.40;6.40;;;;;;;;;;5021780;28;20045;-67
2022/04/05 03:10:01;;;;;;;9.18;5.70;;;;;;;;;;5019629;28;20129;-67
2022/04/05 03:12:29;;;;;;;8.77;6.55;;;;;;;;;;5020283;28;20108;-67
2022/04/05 03:14:55;;;;;;;9.95;6.95;;;;;;;;;;5016559;28;20117;-67
2022/04/05 03:17:21;;;;;;;8.52;7.05;;;;;;;;;;5022216;28;20124;-67
2022/04/05 03:19:47;;;;;;;9.70;7.32;;;;;;;;;;5027674;28;20036;-68
2022/04/05 03:22:13;;;;;;;9.57;7.35;;;;;;;;;;5021174;28;20029;-67
2022/04/05 03:24:38;;;;;;;14.07;8.10;;;;;;;;;;5017192;28;20040;-67
2022/04/05 03:27:04;;;;;;;11.45;7.97;;;;;;;;;;5024801;28;20068;-67
2022/04/05 03:29:30;;;;;;;10.05;7.25;;;;;;;;;;5020789;28;20059;-67
2022/04/05 03:31:56;;;;;;;8.75;7.60;;;;;;;;;;5018517;28;20092;-65
2022/04/05 03:34:22;;;;;;;11.88;8.23;;;;;;;;;;5021386;28;20032;-68
2022/04/05 03:36:48;;;;;;;13.05;7.97;;;;;;;;;;5019369;28;20030;-67
2022/04/05 03:39:14;;;;;;;11.55;7.80;;;;;;;;;;5017434;28;20037;-68
2022/04/05 03:41:41;;;;;;;11.20;8.52;;;;;;;;;;5024542;28;20045;-67
2022/04/05 03:44:07;;;;;;;9.40;7.18;;;;;;;;;;5025586;28;20070;-68
2022/04/05 03:46:33;;;;;;;8.57;7.68;;;;;;;;;;5013307;28;20062;-68
2022/04/05 03:49:00;;;;;;;8.55;6.88;;;;;;;;;;5015636;28;20084;-68
2022/04/05 03:51:26;;;;;;;10.88;7.90;;;;;;;;;;5012469;28;20090;-67
2022/04/05 03:53:54;;;;;;;8.30;7.47;;;;;;;;;;5020377;28;20032;-67
2022/04/05 03:56:20;;;;;;;8.90;7.78;;;;;;;;;;5020135;28;20100;-67
2022/04/05 03:58:46;;;;;;;12.38;7.90;;;;;;;;;;5024574;28;20030;-67
2022/04/05 04:01:12;;;;;;;9.20;7.55;;;;;;;;;;5025719;28;20044;-68
2022/04/05 04:03:38;;;;;;;13.10;8.43;;;;;;;;;;5018734;28;20033;-67
2022/04/05 04:06:04;;;;;;;11.95;8.80;;;;;;;;;;5029201;28;20045;-67
2022/04/05 04:08:29;;;;;;;9.13;8.13;;;;;;;;;;5019244;28;20498;-67
2022/04/05 04:10:55;;;;;;;11.07;7.88;;;;;;;;;;5014969;28;20030;-67
2022/04/05 04:13:21;;;;;;;8.32;7.18;;;;;;;;;;5024316;28;20040;-68
2022/04/05 04:15:47;;;;;;;14.55;8.07;;;;;;;;;;5019013;28;20037;-68
2022/04/05 04:18:12;;;;;;;10.52;7.88;;;;;;;;;;5016237;28;20046;-67
2022/04/05 04:20:42;;;;;;;9.27;8.15;;;;;;;;;;5029599;28;20037;-67
2022/04/05 04:23:11;;;;;;;11.02;8.18;;;;;;;;;;5017206;28;20383;-67
2022/04/05 04:25:37;;;;;;;14.80;8.07;;;;;;;;;;5021765;28;20037;-67
2022/04/05 04:28:07;;;;;;;10.50;8.50;;;;;;;;;;5020272;28;20053;-67
2022/04/05 04:30:37;;;;;;;10.98;8.93;;;;;;;;;;5023483;28;20053;-67
2022/04/05 04:33:03;;;;;;;12.05;8.05;;;;;;;;;;5017663;28;20037;-67
2022/04/05 04:35:30;;;;;;;11.10;8.60;;;;;;;;;;5028638;28;20040;-67
2022/04/05 04:37:57;;;;;;;11.90;8.38;;;;;;;;;;5018632;28;20045;-65
2022/04/05 04:40:23;;;;;;;15.05;9.20;;;;;;;;;;5016731;28;20108;-67
2022/04/05 04:42:49;;;;;;;9.93;8.85;;;;;;;;;;5020643;28;20144;-67
2022/04/05 04:45:14;;;;;;;12.43;8.52;;;;;;;;;;5023755;28;20037;-67
2022/04/05 04:47:40;;;;;;;10.35;9.20;;;;;;;;;;5025863;28;20072;-67
2022/04/05 04:50:10;;;;;;;13.07;8.93;;;;;;;;;;5018718;28;20441;-67
2022/04/05 04:52:37;;;;;;;12.48;9.70;;;;;;;;;;5020415;28;20072;-66
2022/04/05 04:55:04;;;;;;;10.98;9.20;;;;;;;;;;5014427;28;20065;-67
2022/04/05 04:57:30;;;;;;;13.98;10.13;;;;;;;;;;5021734;28;20467;-67
2022/04/05 04:59:56;;;;;;;13.35;9.88;;;;;;;;;;5032070;28;20160;-67
2022/04/05 05:02:22;;;;;;;14.52;9.88;;;;;;;;;;5019103;28;20033;-67
2022/04/05 05:04:49;;;;;;;13.75;10.05;;;;;;;;;;5023436;28;20030;-67
2022/04/05 05:07:15;;;;;;;19.15;10.23;;;;;;;;;;5016520;28;20029;-67
2022/04/05 05:09:41;;;;;;;12.98;10.18;;;;;;;;;;5016138;28;20022;-67
2022/04/05 05:12:10;;;;;;;16.33;10.75;;;;;;;;;;5019279;28;20037;-67
2022/04/05 05:14:39;;;;;;;20.42;10.45;;;;;;;;;;5029342;28;20113;-67
2022/04/05 05:17:06;;;;;;;17.75;10.85;;;;;;;;;;5012607;28;20040;-67
2022/04/05 05:19:32;;;;;;;18.65;11.50;;;;;;;;;;5019423;28;20059;-68
2022/04/05 05:21:58;;;;;;;15.82;10.85;;;;;;;;;;5014155;28;20036;-67
2022/04/05 05:24:24;;;;;;;16.15;12.32;;;;;;;;;;5021248;28;20026;-68
2022/04/05 05:26:50;;;;;;;26.10;11.73;;;;;;;;;;5032436;28;20026;-68
2022/04/05 05:29:15;;;;;;;20.95;13.23;;;;;;;;;;5022185;28;20084;-68
2022/04/05 05:31:41;;;;;;;18.30;12.75;;;;;;;;;;5022623;28;20111;-68
2022/04/05 05:34:07;;;;;;;19.13;13.45;;;;;;;;;;5014342;28;20592;-68
2022/04/05 05:36:33;;;;;;;16.38;12.85;;;;;;;;;;5009581;28;20390;-68
2022/04/05 05:38:59;;;;;;;22.00;13.68;;;;;;;;;;5014968;28;20060;-68
2022/04/05 05:41:25;;;;;;;20.30;12.88;;;;;;;;;;5014034;28;20123;-68
2022/04/05 05:43:51;;;;;;;20.15;13.20;;;;;;;;;;5018982;28;20038;-68
2022/04/05 05:46:17;;;;;;;17.40;12.27;;;;;;;;;;5020630;28;20049;-68
2022/04/05 05:48:42;;;;;;;19.77;12.90;;;;;;;;;;5016488;28;20478;-68
2022/04/05 05:51:08;;;;;;;18.98;12.93;;;;;;;;;;5016829;28;20044;-66
2022/04/05 05:53:34;;;;;;;17.95;12.00;;;;;;;;;;5018914;28;20124;-68
2022/04/05 05:56:01;;;;;;;17.30;13.13;;;;;;;;;;5019302;28;20042;-69
2022/04/05 05:58:28;;;;;;;19.42;13.95;;;;;;;;;;5020841;28;20045;-68
2022/04/05 06:00:54;;;;;;;17.13;12.13;;;;;;;;;;5015897;28;20040;-68
2022/04/05 06:03:20;;;;;;;21.35;11.43;;;;;;;;;;5019435;28;20120;-68
2022/04/05 06:05:47;;;;;;;21.85;12.18;;;;;;;;;;5018279;28;20133;-68
2022/04/05 06:08:13;;;;;;;19.20;12.02;;;;;;;;;;5020690;28;20078;-68
2022/04/05 06:10:39;;;;;;;15.90;10.90;;;;;;;;;;5018146;28;20041;-66
2022/04/05 06:13:05;;;;;;;16.52;11.35;;;;;;;;;;5018909;28;20037;-68
2022/04/05 06:15:32;;;;;;;15.95;11.32;;;;;;;;;;5018740;28;20481;-68
2022/04/05 06:17:58;;;;;;;17.63;10.93;;;;;;;;;;5023111;28;20034;-68
2022/04/05 06:20:25;;;;;;;18.13;11.90;;;;;;;;;;5017564;28;20113;-68
2022/04/05 06:23:02;;;;;;;16.95;11.27;;;;;;;;;;5027507;28;20086;-68
2022/04/05 06:25:34;;;;;;;15.13;10.45;;;;;;;;;;5016874;28;20104;-68
2022/04/05 06:28:06;;;;;;;26.67;11.75;;;;;;;;;;5027529;28;20041;-68
2022/04/05 06:30:34;;;;;;;12.33;10.77;;;;;;;;;;5016228;28;20033;-68
2022/04/05 06:33:14;;;;;;;15.48;10.40;;;;;;;;;;5019762;28;20491;-68
2022/04/05 06:35:43;;;;;;;16.75;11.75;;;;;;;;;;5024399;28;20064;-68
2022/04/05 06:38:10;;;;;;;16.88;10.70;;;;;;;;;;5017352;28;20099;-68
2022/04/05 06:40:36;;;;;;;19.50;11.40;;;;;;;;;;5020441;28;20049;-68
2022/04/05 06:43:03;;;;;;;19.05;12.07;;;;;;;;;;5021098;28;20080;-68
2022/04/05 06:45:29;;;;;;;17.48;11.20;;;;;;;;;;5014432;28;20038;-68
2022/04/05 06:47:55;;;;;;;21.63;11.32;;;;;;;;;;5030594;28;20136;-68
2022/04/05 06:50:24;;;;;;;19.25;11.65;;;;;;;;;;5020768;28;20478;-68
2022/04/05 06:52:54;;;;;;;24.60;11.57;;;;;;;;;;5024882;28;20033;-68
2022/04/05 06:55:20;;;;;;;25.75;11.25;;;;;;;;;;5023960;28;20505;-67
2022/04/05 06:57:47;;;;;;;16.10;11.52;;;;;;;;;;5026645;28;20045;-68
2022/04/05 07:00:14;;;;;;;24.05;11.60;;;;;;;;;;5016193;28;20037;-68
2022/04/05 07:02:40;;;;;;;17.60;10.85;;;;;;;;;;5019209;28;20037;-68
2022/04/05 07:05:07;;;;;;;17.67;10.15;;;;;;;;;;5029833;28;20049;-68
2022/04/05 07:07:32;;;;;;;17.83;10.32;;;;;;;;;;5019046;28;20045;-68
2022/04/05 07:09:58;;;;;;;21.30;10.13;;;;;;;;;;5019919;28;20385;-67
2022/04/05 07:12:24;;;;;;;14.75;9.50;;;;;;;;;;5019216;28;20123;-68
2022/04/05 07:14:51;;;;;;;12.20;9.75;;;;;;;;;;5024290;28;20033;-67
2022/04/05 07:17:18;;;;;;;16.30;9.85;;;;;;;;;;5016460;28;20363;-67
2022/04/05 07:19:43;;;;;;;14.82;10.25;;;;;;;;;;5017492;28;20474;-67
2022/04/05 07:22:09;;;;;;;15.30;10.40;;;;;;;;;;5021261;28;20043;-68
2022/04/05 07:24:34;;;;;;;17.90;8.82;;;;;;;;;;5017485;28;20417;-68
2022/04/05 07:27:00;;;;;;;22.00;9.82;;;;;;;;;;5023739;28;20088;-68
2022/04/05 07:29:26;;;;;;;15.15;9.32;;;;;;;;;;5027413;28;20118;-68
2022/04/05 07:31:52;;;;;;;19.38;7.85;;;;;;;;;;5021818;28;20061;-68
2022/04/05 07:34:18;;;;;;;12.65;6.68;;;;;;;;;;5026887;28;20040;-67
2022/04/05 07:36:43;;;;;;;14.82;6.10;;;;;;;;;;5018991;28;20045;-68
2022/04/05 07:39:09;;;;;;;9.63;6.10;;;;;;;;;;5024475;28;20036;-68
2022/04/05 07:41:35;;;;;;;14.02;6.80;;;;;;;;;;5022308;28;20026;-68
2022/04/05 07:44:02;;;;;;;9.88;6.28;;;;;;;;;;5017070;28;20088;-68
2022/04/05 07:46:27;;;;;;;8.23;6.20;;;;;;;;;;5022365;28;20025;-68
2022/04/05 07:48:53;;;;;;;12.57;6.68;;;;;;;;;;5021065;28;20033;-68
2022/04/05 07:51:19;;;;;;;8.68;6.30;;;;;;;;;;5013987;28;20478;-68
2022/04/05 07:53:45;;;;;;;11.07;5.75;;;;;;;;;;5029348;28;20112;-68
2022/04/05 07:56:12;;;;;;;6.80;5.50;;;;;;;;;;5029091;28;20041;-68
2022/04/05 07:58:39;;;;;;;9.13;6.03;;;;;;;;;;5021514;28;20033;-68
2022/04/05 08:01:05;;;;;;;5.88;5.20;;;;;;;;;;5017931;28;20168;-68
2022/04/05 08:03:30;;;;;;;11.77;5.82;;;;;;;;;;5022222;28;20037;-68
2022/04/05 08:05:56;;;;;;;12.57;6.03;;;;;;;;;;5030424;28;20437;-69
2022/04/05 08:08:22;;;;;;;9.15;6.70;;;;;;;;;;5021894;28;20084;-68
2022/04/05 08:10:48;;;;;;;11.27;6.82;;;;;;;;;;5017531;28;20706;-68
2022/04/05 08:13:13;;;;;;;11.82;7.28;;;;;;;;;;5016252;28;20117;-68
2022/04/05 08:15:43;;;;;;;14.45;7.90;;;;;;;;;;5022765;28;20495;-68
2022/04/05 08:18:09;;;;;;;15.68;8.45;;;;;;;;;;5013532;28;20075;-68
2022/04/05 08:20:36;;;;;;;19.23;9.25;;;;;;;;;;5019643;28;20040;-68
2022/04/05 08:23:03;;;;;;;11.27;8.10;;;;;;;;;;5019248;28;20034;-69
2022/04/05 08:25:29;;;;;;;11.73;8.38;;;;;;;;;;5022913;28;20505;-68
2022/04/05 08:27:55;;;;;;;13.00;7.97;;;;;;;;;;5021951;28;20028;-69
2022/04/05 08:30:21;;;;;;;10.05;7.30;;;;;;;;;;5011376;28;20397;-68
2022/04/05 08:32:48;;;;;;;13.68;6.82;;;;;;;;;;5017284;28;20088;-68
2022/04/05 08:35:20;;;;;;;7.80;7.00;;;;;;;;;;5015288;28;20144;-69
2022/04/05 08:37:47;;;;;;;7.03;6.32;;;;;;;;;;5028477;28;20032;-69
2022/04/05 08:40:14;;;;;;;11.55;6.63;;;;;;;;;;5012704;28;20037;-68
2022/04/05 08:42:46;;;;;;;11.80;6.68;;;;;;;;;;5012983;28;20571;-69
2022/04/05 08:45:14;;;;;;;9.07;7.15;;;;;;;;;;5011691;28;20482;-69
2022/04/05 08:47:46;;;;;;;7.35;6.60;;;;;;;;;;5016933;28;20045;-69
2022/04/05 08:50:17;;;;;;;10.73;6.35;;;;;;;;;;5017249;28;20474;-69
2022/04/05 08:52:44;;;;;;;11.77;6.60;;;;;;;;;;5015429;28;20030;-69
2022/04/05 08:55:10;;;;;;;9.88;6.95;;;;;;;;;;5017398;28;20026;-68
2022/04/05 08:57:36;;;;;;;19.25;7.70;;;;;;;;;;5019323;28;20109;-68
2022/04/05 09:00:05;;;;;;;27.60;9.70;;;;;;;;;;5011938;28;20073;-68
2022/04/05 09:02:32;;;;;;;61.63;13.52;;;;;;;;;;5013999;28;20064;-69
2022/04/05 09:04:58;;;;;;;14.88;7.15;;;;;;;;;;5012091;28;20034;-69
2022/04/05 09:07:29;;;;;;;8.25;7.05;;;;;;;;;;5017276;28;20079;-69
2022/04/05 09:10:17;;;;;;;18.30;8.65;;;;;;;;;;5019405;28;20043;-69
2022/04/05 09:12:46;;;;;;;9.75;6.53;;;;;;;;;;5015668;28;20040;-69
2022/04/05 09:15:18;;;;;;;8.27;6.30;;;;;;;;;;5018899;28;20034;-69
2022/04/05 09:17:49;;;;;;;9.32;6.75;;;;;;;;;;5018737;28;20033;-69
2022/04/05 09:20:17;;;;;;;8.10;6.30;;;;;;;;;;5023488;28;20375;-69
2022/04/05 09:22:43;;;;;;;10.35;6.75;;;;;;;;;;5022402;28;20025;-69
2022/04/05 09:25:11;;;;;;;19.17;7.30;;;;;;;;;;5026797;28;20033;-69
2022/04/05 09:27:46;;;;;;;8.30;7.10;;;;;;;;;;5022154;28;20069;-69
2022/04/05 09:30:13;;;;;;;16.13;6.03;;;;;;;;;;5019197;28;20038;-69
2022/04/05 09:32:42;;;;;;;6.72;6.03;;;;;;;;;;5015915;28;20037;-69
2022/04/05 09:35:09;;;;;;;9.77;6.40;;;;;;;;;;5020049;28;20033;-69
2022/04/05 09:37:38;;;;;;;8.95;6.40;;;;;;;;;;5021278;28;20380;-69
2022/04/05 09:40:35;;;;;;;9.07;5.35;;;;;;;;;;5024890;28;20710;-69
2022/04/05 09:43:12;;;;;;;7.45;5.50;;;;;;;;;;5017009;28;20136;-69
2022/04/05 09:45:41;;;;;;;7.78;5.80;;;;;;;;;;5015080;28;20042;-69
2022/04/05 09:48:08;;;;;;;6.47;5.72;;;;;;;;;;5024713;28;20315;-69
2022/04/05 09:51:00;;;;;;;9.55;6.22;;;;;;;;;;5016375;28;20069;-69
2022/04/05 09:53:54;;;;;;;7.53;5.57;;;;;;;;;;5030195;28;20130;-69
2022/04/05 09:56:33;;;;;;;6.70;6.00;;;;;;;;;;5017066;28;20037;-69
2022/04/05 09:59:06;;;;;;;9.52;6.00;;;;;;;;;;5023496;28;20076;-70
2022/04/05 10:01:36;;;;;;;6.57;5.60;;;;;;;;;;5024092;28;20416;-70
2022/04/05 10:04:05;;;;;;;10.73;5.88;;;;;;;;;;5024690;28;20233;-69
2022/04/05 10:06:33;;;;;;;6.63;5.32;;;;;;;;;;5024479;28;20030;-69
2022/04/05 10:09:00;;;;;;;8.50;5.85;;;;;;;;;;5027624;28;20106;-70
2022/04/05 10:11:28;;;;;;;6.32;5.32;;;;;;;;;;5023994;28;20061;-69
2022/04/05 10:13:55;;;;;;;12.02;5.32;;;;;;;;;;5027086;28;20108;-69
2022/04/05 10:16:28;;;;;;;9.20;5.47;;;;;;;;;;5027132;28;20521;-70
2022/04/05 10:19:09;;;;;;;7.07;5.32;;;;;;;;;;5015382;28;20033;-69
2022/04/05 10:21:36;;;;;;;10.93;5.45;;;;;;;;;;5017624;28;20541;-70
2022/04/05 10:24:04;;;;;;;7.95;5.93;;;;;;;;;;5024227;28;20034;-70
2022/04/05 10:26:41;;;;;;;12.57;5.50;;;;;;;;;;5027226;28;20069;-70
2022/04/05 10:29:09;;;;;;;7.93;6.22;;;;;;;;;;5023219;28;20025;-69
2022/04/05 10:32:04;;;;;;;6.88;5.07;;;;;;;;;;5023896;28;20420;-70
2022/04/05 10:34:53;;;;;;;9.00;5.30;;;;;;;;;;5016414;28;20033;-69
2022/04/05 10:37:33;;;;;;;7.28;5.53;;;;;;;;;;5022346;28;20393;-69
2022/04/05 10:39:58;;;;;;;9.35;5.57;;;;;;;;;;5017446;28;20414;-70
2022/04/05 10:42:33;;;;;;;7.28;5.70;;;;;;;;;;5011958;28;20095;-70
2022/04/05 10:45:07;;;;;;;8.18;5.13;;;;;;;;;;5022521;28;20482;-70
2022/04/05 10:47:53;;;;;;;12.23;4.88;;;;;;;;;;5025215;28;20034;-69
2022/04/05 10:50:19;;;;;;;5.68;4.10;;;;;;;;;;5028364;28;20036;-70
2022/04/05 10:52:47;;;;;;;5.60;4.95;;;;;;;;;;5025960;28;20029;-70
2022/04/05 10:55:18;;;;;;;8.13;5.03;;;;;;;;;;5020498;28;20425;-70
2022/04/05 10:57:44;;;;;;;7.60;4.03;;;;;;;;;;5024045;28;20112;-69
2022/04/05 11:00:19;;;;;;;5.70;4.47;;;;;;;;;;5020258;28;20033;-69
2022/04/05 11:02:47;;;;;;;8.65;4.38;;;;;;;;;;5022559;28;20025;-69
2022/04/05 11:05:13;;;;;;;6.90;5.35;;;;;;;;;;5023540;28;20385;-70
2022/04/05 11:07:51;;;;;;;8.00;4.47;;;;;;;;;;5021446;28;20179;-70
2022/04/05 11:10:39;;;;;;;9.45;4.70;;;;;;;;;;5020614;28;20030;-69
2022/04/05 11:13:19;;;;;;;6.80;4.50;;;;;;;;;;5015330;28;20037;-69
2022/04/05 11:15:45;;;;;;;8.00;5.05;;;;;;;;;;5020352;28;20629;-69
2022/04/05 11:18:11;;;;;;;8.00;4.97;;;;;;;;;;5019550;28;20037;-69
2022/04/05 11:20:41;;;;;;;5.78;4.47;;;;;;;;;;5020118;28;20029;-68
2022/04/05 11:23:07;;;;;;;5.75;3.78;;;;;;;;;;5025886;28;20038;-69
2022/04/05 11:25:33;;;;;;;4.82;3.92;;;;;;;;;;5028359;28;20040;-69
2022/04/05 11:28:09;;;;;;;4.60;4.20;;;;;;;;;;5020125;28;20033;-69
2022/04/05 11:31:00;;;;;;;5.90;4.65;;;;;;;;;;5019976;28;20040;-69
2022/04/05 11:33:32;;;;;;;9.52;5.13;;;;;;;;;;5020239;28;20533;-70
2022/04/05 11:36:02;;;;;;;6.10;4.47;;;;;;;;;;5023988;28;20034;-69
2022/04/05 11:38:32;;;;;;;6.20;4.57;;;;;;;;;;5026620;28;20120;-70
2022/04/05 11:41:03;;;;;;;6.70;4.00;;;;;;;;;;5018732;28;20034;-70
2022/04/05 11:43:34;;;;;;;5.82;4.40;;;;;;;;;;5020830;28;20041;-67
2022/04/05 11:46:04;;;;;;;8.63;4.40;;;;;;;;;;5015684;28;21253;-69
2022/04/05 11:48:30;;;;;;;4.18;3.75;;;;;;;;;;5021943;28;20029;-70
2022/04/05 11:51:05;;;;;;;4.93;4.35;;;;;;;;;;5013844;28;20026;-70
2022/04/05 11:53:31;;;;;;;4.80;4.10;;;;;;;;;;5024388;28;20029;-67
2022/04/05 11:56:08;;;;;;;5.88;4.20;;;;;;;;;;5019643;28;20442;-66
2022/04/05 11:58:36;;;;;;;6.05;3.80;;;;;;;;;;5029021;28;20029;-67
2022/04/05 12:01:04;;;;;;;3.92;3.53;;;;;;;;;;5014956;28;20487;-70
2022/04/05 12:03:40;;;;;;;6.15;4.35;;;;;;;;;;5018933;28;20124;-67
2022/04/05 12:06:05;;;;;;;4.57;4.13;;;;;;;;;;5025322;28;20055;-69
2022/04/05 12:08:31;;;;;;;4.70;4.20;;;;;;;;;;5014375;28;20474;-69
2022/04/05 12:10:58;;;;;;;4.68;4.07;;;;;;;;;;5023478;28;20038;-69
2022/04/05 12:13:31;;;;;;;4.65;3.60;;;;;;;;;;5020606;28;20474;-69
2022/04/05 12:15:59;;;;;;;5.88;3.80;;;;;;;;;;5012146;28;20037;-66
2022/04/05 12:18:28;;;;;;;4.40;4.00;;;;;;;;;;5015990;28;20022;-69
2022/04/05 12:21:11;;;;;;;8.95;4.13;;;;;;;;;;5016553;28;20501;-69
2022/04/05 12:23:41;;;;;;;7.50;4.53;;;;;;;;;;5027876;28;20041;-69
2022/04/05 12:26:14;;;;;;;7.53;3.92;;;;;;;;;;5020942;28;20036;-70
2022/04/05 12:28:45;;;;;;;6.00;4.18;;;;;;;;;;5025626;28;20032;-69
2022/04/05 12:31:17;;;;;;;8.00;4.45;;;;;;;;;;5018070;28;21104;-70
2022/04/05 12:34:05;;;;;;;8.35;4.13;;;;;;;;;;5020440;28;20045;-67
2022/04/05 12:36:33;;;;;;;6.47;4.40;;;;;;;;;;5019440;28;20045;-69
2022/04/05 12:39:01;;;;;;;15.30;5.00;;;;;;;;;;5023519;28;20037;-69
2022/04/05 12:41:27;;;;;;;8.52;4.25;;;;;;;;;;5024140;28;20167;-69
2022/04/05 12:44:04;;;;;;;8.52;3.83;;;;;;;;;;5020854;28;20109;-69
2022/04/05 12:47:00;;;;;;;5.70;4.07;;;;;;;;;;5023071;28;20033;-70
2022/04/05 12:49:50;;;;;;;7.05;3.83;;;;;;;;;;4946969;28;20124;-69
2022/04/05 12:52:17;;;;;;;5.15;4.40;;;;;;;;;;4954228;28;20030;-67
2022/04/05 12:54:49;;;;;;;6.65;4.65;;;;;;;;;;4954640;28;20066;-68
2022/04/05 12:57:16;;;;;;;6.30;4.47;;;;;;;;;;4951185;28;20050;-69
2022/04/05 12:59:43;;;;;;;6.50;4.53;;;;;;;;;;4949688;28;20193;-70
2022/04/05 13:02:35;;;;;;;5.35;4.35;;;;;;;;;;4954924;28;20039;-69
2022/04/05 13:08:27;;;;;;;5.15;3.90;;;;;;;;;;4959394;28;20073;-70
2022/04/05 13:10:53;;;;;;;4.57;4.18;;;;;;;;;;4953191;28;20031;-68
2022/04/05 13:13:38;;;;;;;5.85;4.28;;;;;;;;;;4952618;28;20054;-69
2022/04/05 13:16:11;;;;;;;7.47;4.85;;;;;;;;;;4953779;28;20118;-70
2022/04/05 13:18:46;;;;;;;5.55;3.90;;;;;;;;;;4959478;28;20031;-70
2022/04/05 13:21:18;;;;;;;4.53;4.15;;;;;;;;;;4955606;28;20071;-68
2022/04/05 13:24:02;;;;;;;5.63;4.47;;;;;;;;;;4958647;28;20023;-70
2022/04/05 13:26:28;;;;;;;4.60;4.10;;;;;;;;;;4994770;28;20517;-69
2022/04/05 13:29:13;;;;;;;5.25;3.95;;;;;;;;;;5028163;28;20104;-70
2022/04/05 13:32:02;;;;;;;8.60;3.92;;;;;;;;;;5022391;28;20041;-69
2022/04/05 13:34:36;;;;;;;8.93;3.75;;;;;;;;;;5031518;28;20029;-70
2022/04/05 13:37:03;;;;;;;7.10;4.05;;;;;;;;;;5023634;28;20045;-70
2022/04/05 13:39:33;;;;;;;7.28;4.18;;;;;;;;;;5031044;28;20033;-69
2022/04/05 13:42:13;;;;;;;8.45;4.55;;;;;;;;;;5015179;28;20402;-69
2022/04/05 13:44:40;;;;;;;7.32;4.28;;;;;;;;;;5020834;28;20037;-70
2022/04/05 13:47:07;;;;;;;9.60;4.47;;;;;;;;;;5027400;28;20052;-67
2022/04/05 13:49:32;;;;;;;4.40;4.00;;;;;;;;;;5026794;28;20485;-67
2022/04/05 13:51:58;;;;;;;10.35;4.50;;;;;;;;;;5013962;28;20033;-69
2022/04/05 13:54:25;;;;;;;5.35;4.82;;;;;;;;;;5021070;28;20033;-68
2022/04/05 13:56:51;;;;;;;6.93;4.65;;;;;;;;;;5025091;28;20394;-70
2022/04/05 13:59:17;;;;;;;11.40;4.20;;;;;;;;;;5022285;28;20026;-69
2022/04/05 14:01:43;;;;;;;4.78;3.83;;;;;;;;;;5023523;28;20033;-70
2022/04/05 14:04:09;;;;;;;10.10;4.97;;;;;;;;;;5020301;28;20490;-70
2022/04/05 14:06:37;;;;;;;7.70;4.30;;;;;;;;;;5021654;28;20086;-69
2022/04/05 14:09:04;;;;;;;7.07;3.85;;;;;;;;;;5019965;28;20480;-70
2022/04/05 14:11:30;;;;;;;8.77;3.63;;;;;;;;;;5038304;28;20034;-71
2022/04/05 14:13:57;;;;;;;4.32;3.63;;;;;;;;;;5021379;28;20079;-68
2022/04/05 14:16:24;;;;;;;7.40;3.70;;;;;;;;;;5023387;28;20056;-70
2022/04/05 14:18:50;;;;;;;3.80;3.20;;;;;;;;;;5024322;28;20065;-70
2022/04/05 14:21:16;;;;;;;8.50;3.75;;;;;;;;;;5020181;28;20081;-68
2022/04/05 14:23:43;;;;;;;6.25;3.10;;;;;;;;;;5021950;28;20033;-70
2022/04/05 14:26:11;;;;;;;4.70;2.85;;;;;;;;;;5018365;28;20105;-70
2022/04/05 14:28:39;;;;;;;2.70;2.50;;;;;;;;;;5026427;28;20029;-69
2022/04/05 14:31:09;;;;;;;5.57;3.33;;;;;;;;;;5023082;28;20503;-70
2022/04/05 14:33:35;;;;;;;4.80;3.10;;;;;;;;;;5018532;28;20539;-69
2022/04/05 14:36:01;;;;;;;4.00;3.05;;;;;;;;;;5024623;28;20493;-70
2022/04/05 14:38:27;;;;;;;6.13;2.67;;;;;;;;;;5015793;28;20036;-69
2022/04/05 14:40:53;;;;;;;3.20;2.95;;;;;;;;;;5023276;28;20030;-69
2022/04/05 14:43:18;;;;;;;7.15;2.80;;;;;;;;;;5021291;28;20053;-69
2022/04/05 14:45:44;;;;;;;4.72;2.67;;;;;;;;;;5022337;28;20040;-70
2022/04/05 14:48:10;;;;;;;9.30;2.65;;;;;;;;;;5016483;28;20037;-71